createdAt,value
2022-11-22T00:00:35.304Z,96333.53
2022-11-22T00:03:01.753Z,96340.44
2022-11-22T00:05:28.269Z,96333.78
2022-11-22T00:07:54.781Z,96329.78
2022-11-22T00:10:21.196Z,96322.81
2022-11-22T00:12:47.641Z,96320.00
2022-11-22T00:15:14.206Z,96318.00
2022-11-22T00:17:40.640Z,96308.28
2022-11-22T00:20:08.452Z,96300.19
2022-11-22T00:22:38.462Z,96291.34
2022-11-22T00:25:07.904Z,96291.22
2022-11-22T00:27:34.404Z,96282.72
2022-11-22T00:30:00.916Z,96289.53
2022-11-22T00:32:27.379Z,96284.31
2022-11-22T00:34:53.831Z,96281.72
2022-11-22T00:37:20.288Z,96290.22
2022-11-22T00:39:46.711Z,96289.41
2022-11-22T00:42:13.206Z,96292.19
2022-11-22T00:44:39.640Z,96292.78
2022-11-22T00:47:06.232Z,96296.09
2022-11-22T00:49:33.001Z,96295.84
2022-11-22T00:51:59.542Z,96291.69
2022-11-22T00:54:26.013Z,96302.59
2022-11-22T00:56:52.847Z,96290.38
2022-11-22T00:59:19.279Z,96302.59
2022-11-22T01:01:45.777Z,96302.41
2022-11-22T01:04:12.316Z,96302.09
2022-11-22T01:06:38.809Z,96292.19
2022-11-22T01:09:05.353Z,96291.63
2022-11-22T01:11:31.880Z,96292.78
2022-11-22T01:13:58.375Z,96284.16
2022-11-22T01:16:24.860Z,96274.00
2022-11-22T01:18:51.301Z,96277.28
2022-11-22T01:21:17.830Z,96287.56
2022-11-22T01:23:44.468Z,96287.38
2022-11-22T01:26:12.419Z,96287.88
2022-11-22T01:28:38.930Z,96281.97
2022-11-22T01:31:05.392Z,96281.09
2022-11-22T01:33:31.895Z,96293.56
2022-11-22T01:35:58.547Z,96302.53
2022-11-22T01:38:25.269Z,96308.81
2022-11-22T01:40:52.032Z,96302.13
2022-11-22T01:43:20.069Z,96300.75
2022-11-22T01:45:53.426Z,96300.75
2022-11-22T01:48:23.255Z,96303.50
2022-11-22T01:50:52.421Z,96295.00
2022-11-22T01:53:21.946Z,96298.97
2022-11-22T01:55:49.176Z,96298.59
2022-11-22T01:58:15.990Z,96297.06
2022-11-22T02:00:43.708Z,96288.09
2022-11-22T02:03:12.080Z,96290.19
2022-11-22T02:05:38.821Z,96292.50
2022-11-22T02:08:15.669Z,96287.97
2022-11-22T02:10:43.825Z,96282.91
2022-11-22T02:13:10.458Z,96278.81
2022-11-22T02:15:37.123Z,96274.59
2022-11-22T02:18:03.602Z,96283.50
2022-11-22T02:20:30.115Z,96280.88
2022-11-22T02:23:07.529Z,96273.44
2022-11-22T02:25:44.864Z,96269.88
2022-11-22T02:28:14.031Z,96263.34
2022-11-22T02:30:41.126Z,96272.13
2022-11-22T02:33:07.886Z,96274.66
2022-11-22T02:35:34.750Z,96256.47
2022-11-22T02:38:04.181Z,96249.22
2022-11-22T02:40:39.504Z,96241.38
2022-11-22T02:43:08.028Z,96241.41
2022-11-22T02:45:34.502Z,96225.56
2022-11-22T02:48:05.285Z,96231.94
2022-11-22T02:50:31.774Z,96226.00
2022-11-22T02:52:58.245Z,96229.22
2022-11-22T02:55:24.896Z,96230.69
2022-11-22T02:57:51.345Z,96220.28
2022-11-22T03:00:17.934Z,96217.75
2022-11-22T03:02:44.369Z,96204.81
2022-11-22T03:05:10.857Z,96214.66
2022-11-22T03:07:37.368Z,96227.91
2022-11-22T03:10:03.951Z,96217.84
2022-11-22T03:12:30.521Z,96227.06
2022-11-22T03:14:56.944Z,96221.34
2022-11-22T03:17:23.492Z,96210.78
2022-11-22T03:19:49.944Z,96216.25
2022-11-22T03:22:16.400Z,96218.06
2022-11-22T03:24:42.875Z,96208.59
2022-11-22T03:27:09.313Z,96206.81
2022-11-22T03:29:35.746Z,96208.97
2022-11-22T03:32:02.338Z,96203.78
2022-11-22T03:34:28.832Z,96198.59
2022-11-22T03:36:55.294Z,96197.78
2022-11-22T03:39:21.752Z,96190.81
2022-11-22T03:41:48.301Z,96183.56
2022-11-22T03:44:14.738Z,96191.59
2022-11-22T03:46:41.203Z,96187.50
2022-11-22T03:49:07.694Z,96188.91
2022-11-22T03:51:34.157Z,96181.59
2022-11-22T03:54:00.632Z,96184.63
2022-11-22T03:56:27.113Z,96186.69
2022-11-22T03:58:53.880Z,96174.31
2022-11-22T04:01:20.323Z,96181.19
2022-11-22T04:03:46.866Z,96188.28
2022-11-22T04:06:13.346Z,96181.22
2022-11-22T04:08:39.882Z,96186.78
2022-11-22T04:11:06.337Z,96191.22
2022-11-22T04:13:51.690Z,96192.53
2022-11-22T04:16:18.111Z,96194.75
2022-11-22T04:18:44.552Z,96192.53
2022-11-22T04:21:29.707Z,96191.88
2022-11-22T04:24:14.865Z,96176.69
2022-11-22T04:26:41.312Z,96181.84
2022-11-22T04:29:10.277Z,96175.81
2022-11-22T04:31:55.707Z,96171.63
2022-11-22T04:34:22.240Z,96175.34
2022-11-22T04:36:48.673Z,96167.81
2022-11-22T04:39:15.126Z,96166.72
2022-11-22T04:41:41.576Z,96162.69
2022-11-22T04:44:27.756Z,96163.13
2022-11-22T04:46:54.649Z,96159.44
2022-11-22T04:49:21.137Z,96139.31
2022-11-22T04:52:06.312Z,96144.81
2022-11-22T04:54:32.752Z,96139.66
2022-11-22T04:56:59.196Z,96137.72
2022-11-22T04:59:25.691Z,96145.03
2022-11-22T05:01:52.598Z,96137.50
2022-11-22T05:04:19.065Z,96132.63
2022-11-22T05:06:45.547Z,96132.63
2022-11-22T05:09:12.085Z,96129.47
2022-11-22T05:11:38.510Z,96121.47
2022-11-22T05:14:04.991Z,96121.47
2022-11-22T05:16:31.432Z,96124.97
2022-11-22T05:19:00.859Z,96113.03
2022-11-22T05:21:28.433Z,96112.81
2022-11-22T05:23:54.960Z,96109.97
2022-11-22T05:26:21.463Z,96105.91
2022-11-22T05:28:47.938Z,96111.34
2022-11-22T05:31:16.676Z,96105.00
2022-11-22T05:33:44.000Z,96095.56
2022-11-22T05:36:11.082Z,96103.59
2022-11-22T05:38:38.024Z,96113.53
2022-11-22T05:41:05.938Z,96107.25
2022-11-22T05:43:32.700Z,96118.16
2022-11-22T05:46:09.239Z,96117.59
2022-11-22T05:48:36.296Z,96119.13
2022-11-22T05:51:06.546Z,96110.13
2022-11-22T05:53:33.528Z,96115.41
2022-11-22T05:56:03.879Z,96123.78
2022-11-22T05:58:30.326Z,96133.31
2022-11-22T06:00:56.967Z,96128.81
2022-11-22T06:03:23.425Z,96138.88
2022-11-22T06:05:53.089Z,96132.75
2022-11-22T06:08:19.552Z,96136.19
2022-11-22T06:10:46.025Z,96138.63
2022-11-22T06:13:12.534Z,96142.75
2022-11-22T06:15:38.977Z,96144.72
2022-11-22T06:18:05.465Z,96146.47
2022-11-22T06:20:31.915Z,96145.72
2022-11-22T06:22:59.056Z,96144.81
2022-11-22T06:25:25.753Z,96153.47
2022-11-22T06:27:52.240Z,96147.31
2022-11-22T06:30:18.667Z,96147.00
2022-11-22T06:32:45.080Z,96146.72
2022-11-22T06:35:11.535Z,96137.81
2022-11-22T06:37:37.959Z,96146.66
2022-11-22T06:40:07.318Z,96134.59
2022-11-22T06:42:33.816Z,96131.91
2022-11-22T06:45:00.464Z,96136.25
2022-11-22T06:47:26.885Z,96121.31
2022-11-22T06:49:53.399Z,96128.38
2022-11-22T06:52:19.837Z,96107.53
2022-11-22T06:54:46.293Z,96096.28
2022-11-22T06:57:13.465Z,96094.59
2022-11-22T06:59:39.975Z,96095.16
2022-11-22T07:02:07.104Z,96095.09
2022-11-22T07:04:33.741Z,96102.78
2022-11-22T07:07:00.171Z,96119.47
2022-11-22T07:09:26.724Z,96114.28
2022-11-22T07:11:53.217Z,96123.59
2022-11-22T07:14:19.705Z,96123.22
2022-11-22T07:16:46.144Z,96128.63
2022-11-22T07:19:12.604Z,96139.84
2022-11-22T07:21:39.090Z,96134.59
2022-11-22T07:24:06.234Z,96137.56
2022-11-22T07:26:32.713Z,96140.22
2022-11-22T07:28:59.136Z,96140.22
2022-11-22T07:31:26.275Z,96152.81
2022-11-22T07:33:52.679Z,96137.91
2022-11-22T07:36:20.502Z,96138.72
2022-11-22T07:38:48.450Z,96147.31
2022-11-22T07:41:15.235Z,96149.91
2022-11-22T07:43:41.902Z,96147.53
2022-11-22T07:46:14.382Z,96146.63
2022-11-22T07:48:40.831Z,96150.00
2022-11-22T07:51:07.619Z,96150.81
2022-11-22T07:53:35.019Z,96149.31
2022-11-22T07:56:02.469Z,96140.50
2022-11-22T07:58:29.213Z,96147.22
2022-11-22T08:00:55.713Z,96152.94
2022-11-22T08:03:28.334Z,96156.34
2022-11-22T08:05:59.471Z,96153.94
2022-11-22T08:08:26.042Z,96151.88
2022-11-22T08:10:52.516Z,96158.75
2022-11-22T08:13:18.968Z,96154.97
2022-11-22T08:15:48.215Z,96168.19
2022-11-22T08:18:14.637Z,96166.38
2022-11-22T08:20:41.090Z,96170.69
2022-11-22T08:23:07.581Z,96167.66
2022-11-22T08:25:34.038Z,96167.00
2022-11-22T08:28:00.498Z,96166.41
2022-11-22T08:30:26.963Z,96171.16
2022-11-22T08:32:56.285Z,96168.50
2022-11-22T08:35:23.092Z,96165.84
2022-11-22T08:37:49.528Z,96169.47
2022-11-22T08:40:16.039Z,96153.63
2022-11-22T08:42:42.468Z,96163.34
2022-11-22T08:45:09.178Z,96167.34
2022-11-22T08:47:35.697Z,96153.31
2022-11-22T08:50:02.174Z,96147.47
2022-11-22T08:52:28.685Z,96149.09
2022-11-22T08:54:55.150Z,96153.19
2022-11-22T08:57:21.708Z,96151.13
2022-11-22T08:59:48.215Z,96153.31
2022-11-22T09:02:14.809Z,96147.13
2022-11-22T09:04:41.268Z,96165.47
2022-11-22T09:09:54.825Z,96149.16
2022-11-22T09:12:21.365Z,96148.84
2022-11-22T09:14:47.826Z,96146.66
2022-11-22T09:17:17.778Z,96156.38
2022-11-22T09:19:44.791Z,96146.28
2022-11-22T09:22:11.291Z,96146.31
2022-11-22T09:24:37.734Z,96145.06
2022-11-22T09:27:04.364Z,96146.09
2022-11-22T09:29:31.277Z,96138.16
2022-11-22T09:31:58.064Z,96139.47
2022-11-22T09:34:24.555Z,96125.22
2022-11-22T09:36:51.047Z,96116.94
2022-11-22T09:39:17.590Z,96119.47
2022-11-22T09:41:50.123Z,96124.25
2022-11-22T09:44:22.957Z,96124.47
2022-11-22T09:47:08.015Z,96123.31
2022-11-22T09:49:37.429Z,96110.25
2022-11-22T09:52:13.717Z,96106.06
2022-11-22T09:54:40.222Z,96094.03
2022-11-22T09:57:11.201Z,96092.38
2022-11-22T09:59:40.881Z,96095.63
2022-11-22T10:02:18.049Z,96090.09
2022-11-22T10:04:51.607Z,96080.50
2022-11-22T10:07:22.731Z,96086.22
2022-11-22T10:10:07.919Z,96073.66
2022-11-22T10:12:34.359Z,96063.47
2022-11-22T10:15:05.021Z,96057.81
2022-11-22T10:17:50.380Z,96038.78
2022-11-22T10:20:37.071Z,96020.72
2022-11-22T10:23:07.257Z,96009.66
2022-11-22T10:25:39.808Z,96003.00
2022-11-22T10:28:12.581Z,96011.66
2022-11-22T10:30:41.508Z,95997.31
2022-11-22T10:33:22.149Z,95995.34
2022-11-22T10:35:58.639Z,95987.41
2022-11-22T10:38:37.685Z,95986.75
2022-11-22T10:41:22.841Z,95992.47
2022-11-22T10:43:59.084Z,95985.66
2022-11-22T10:46:38.202Z,95981.69
2022-11-22T10:49:17.996Z,95970.09
2022-11-22T10:51:47.516Z,95972.50
2022-11-22T10:54:36.965Z,95949.09
2022-11-22T10:57:22.184Z,95942.06
2022-11-22T11:00:09.228Z,95922.94
2022-11-22T11:02:35.657Z,95928.69
2022-11-22T11:05:05.343Z,95926.13
2022-11-22T11:07:32.408Z,95938.72
2022-11-22T11:10:27.505Z,95932.38
2022-11-22T11:13:02.541Z,95932.06
2022-11-22T11:15:31.953Z,95927.81
2022-11-22T11:17:59.963Z,95920.66
2022-11-22T11:20:27.712Z,95917.38
2022-11-22T11:25:42.693Z,95918.09
2022-11-22T11:28:21.232Z,95916.22
2022-11-22T11:30:47.700Z,95931.88
2022-11-22T11:33:18.693Z,95927.31
2022-11-22T11:35:46.385Z,95921.72
2022-11-22T11:38:48.514Z,95932.09
2022-11-22T11:41:25.675Z,95926.56
2022-11-22T11:43:53.695Z,95922.34
2022-11-22T11:46:23.252Z,95922.41
2022-11-22T11:48:51.103Z,95923.09
2022-11-22T11:51:22.496Z,95925.09
2022-11-22T11:53:57.506Z,95926.16
2022-11-22T11:56:34.762Z,95925.50
2022-11-22T11:59:05.894Z,95918.69
2022-11-22T12:01:38.481Z,95922.25
2022-11-22T12:04:06.551Z,95916.13
2022-11-22T12:06:33.295Z,95932.25
2022-11-22T12:09:00.668Z,95926.38
2022-11-22T12:11:38.647Z,95921.56
2022-11-22T12:14:22.494Z,95916.59
2022-11-22T12:16:51.040Z,95924.25
2022-11-22T12:19:23.234Z,95926.28
2022-11-22T12:22:03.135Z,95924.00
2022-11-22T12:24:48.737Z,95931.75
2022-11-22T12:27:21.870Z,95935.34
2022-11-22T12:29:48.444Z,95946.53
2022-11-22T12:32:18.543Z,95958.75
2022-11-22T12:34:54.956Z,95973.00
2022-11-22T12:37:21.372Z,95964.81
2022-11-22T12:39:50.402Z,95978.00
2022-11-22T12:42:23.201Z,95980.84
2022-11-22T12:44:58.979Z,95986.81
2022-11-22T12:47:28.690Z,95981.38
2022-11-22T12:50:21.734Z,95976.75
2022-11-22T12:52:51.771Z,95986.94
2022-11-22T12:55:23.933Z,96003.34
2022-11-22T12:58:16.902Z,96002.03
2022-11-22T13:01:13.182Z,96011.03
2022-11-22T13:03:52.391Z,96009.22
2022-11-22T13:06:21.778Z,96009.22
2022-11-22T13:08:58.907Z,96010.69
2022-11-22T13:11:32.423Z,96019.75
2022-11-22T13:14:20.603Z,96024.72
2022-11-22T13:16:48.702Z,96016.06
2022-11-22T13:19:16.993Z,96017.72
2022-11-22T13:22:01.628Z,96021.72
2022-11-22T13:24:37.493Z,96009.06
2022-11-22T13:27:03.952Z,96016.03
2022-11-22T13:29:32.832Z,96018.38
2022-11-22T13:32:02.461Z,96015.69
2022-11-22T13:34:29.297Z,96015.84
2022-11-22T13:37:02.867Z,96012.66
2022-11-22T13:39:29.877Z,96007.16
2022-11-22T13:41:59.429Z,96005.34
2022-11-22T13:44:25.933Z,95996.44
2022-11-22T13:47:00.484Z,95993.09
2022-11-22T13:49:33.883Z,95983.53
2022-11-22T13:52:12.577Z,95982.53
2022-11-22T13:54:57.370Z,95973.22
2022-11-22T13:57:25.562Z,95981.22
2022-11-22T14:00:10.917Z,95974.25
2022-11-22T14:02:38.920Z,95971.59
2022-11-22T14:05:25.617Z,95967.22
2022-11-22T14:07:56.173Z,95966.44
2022-11-22T14:10:31.921Z,95962.25
2022-11-22T14:13:17.520Z,95965.91
2022-11-22T14:16:10.641Z,95958.53
2022-11-22T14:18:59.838Z,95954.56
2022-11-22T14:21:45.220Z,95956.22
2022-11-22T14:24:30.366Z,95946.88
2022-11-22T14:27:08.122Z,95952.22
2022-11-22T14:29:53.922Z,95945.88
2022-11-22T14:32:21.548Z,95933.19
2022-11-22T14:35:03.297Z,95935.50
2022-11-22T14:37:29.773Z,95936.50
2022-11-22T14:40:00.967Z,95929.63
2022-11-22T14:42:48.964Z,95943.47
2022-11-22T14:45:23.195Z,95936.16
2022-11-22T14:47:53.117Z,95942.69
2022-11-22T14:50:27.982Z,95942.00
2022-11-22T14:52:58.611Z,95932.47
2022-11-22T14:55:26.663Z,95933.16
2022-11-22T14:58:06.456Z,95936.50
2022-11-22T15:00:48.709Z,95933.16
2022-11-22T15:03:35.409Z,95929.53
2022-11-22T15:09:13.286Z,95933.97
2022-11-22T15:09:42.182Z,95931.31
2022-11-22T15:12:38.072Z,95938.09
2022-11-22T15:57:36.271Z,96000.69
2022-11-22T16:00:08.980Z,95999.50
2022-11-22T16:02:39.175Z,96008.34
2022-11-22T16:06:05.724Z,96002.84
2022-11-22T16:07:55.239Z,96003.03
2022-11-22T16:10:23.059Z,96001.00
2022-11-22T16:12:50.414Z,95994.66
2022-11-22T16:15:22.401Z,95999.31
2022-11-22T16:17:53.796Z,95991.97
2022-11-22T16:20:31.857Z,96003.16
2022-11-22T16:23:10.487Z,96003.34
2022-11-22T16:25:38.227Z,96005.34
2022-11-22T16:28:20.313Z,96002.84
2022-11-22T16:30:46.759Z,96008.69
2022-11-22T16:33:13.231Z,96007.38
2022-11-22T16:35:39.885Z,96006.38
2022-11-22T16:38:10.720Z,96017.06
2022-11-22T16:40:42.151Z,96009.03
2022-11-22T16:43:22.137Z,96016.06
2022-11-22T16:45:49.388Z,96022.09
2022-11-22T16:48:31.214Z,96025.75
2022-11-22T16:51:01.017Z,96017.72
2022-11-22T16:53:34.702Z,96021.72
2022-11-22T16:56:01.299Z,96026.56
2022-11-22T16:58:28.639Z,96023.75
2022-11-22T17:00:55.755Z,96031.44
2022-11-22T17:03:26.782Z,96025.91
2022-11-22T17:05:53.300Z,96019.91
2022-11-22T17:08:19.907Z,96023.41
2022-11-22T17:10:47.837Z,96024.75
2022-11-22T17:13:18.742Z,96021.06
2022-11-22T17:15:45.448Z,96029.25
2022-11-22T17:18:11.975Z,96028.41
2022-11-22T17:20:38.513Z,96025.91
2022-11-22T17:23:06.985Z,96022.41
2022-11-22T17:25:33.456Z,96030.75
2022-11-22T17:28:00.051Z,96028.25
2022-11-22T17:30:26.519Z,96026.91
2022-11-22T17:32:52.955Z,96018.41
2022-11-22T17:35:19.401Z,96022.72
2022-11-22T17:37:46.038Z,96006.69
2022-11-22T17:40:13.349Z,96012.22
2022-11-22T17:42:41.416Z,96000.00
2022-11-22T17:45:08.095Z,96002.00
2022-11-22T17:47:35.661Z,96008.69
2022-11-22T17:50:02.323Z,96004.03
2022-11-22T17:52:28.913Z,96003.31
2022-11-22T17:54:58.299Z,96006.69
2022-11-22T17:57:27.166Z,95995.31
2022-11-22T17:59:53.806Z,95996.16
2022-11-22T18:02:20.556Z,95995.31
2022-11-22T18:04:47.390Z,95996.50
2022-11-22T18:07:13.950Z,95981.63
2022-11-22T18:09:40.436Z,95971.94
2022-11-22T18:12:06.902Z,95982.53
2022-11-22T18:14:34.568Z,95980.88
2022-11-22T18:17:01.340Z,95974.91
2022-11-22T18:19:27.980Z,95966.59
2022-11-22T18:21:54.549Z,95967.25
2022-11-22T18:24:21.048Z,95967.56
2022-11-22T18:26:48.096Z,95961.22
2022-11-22T18:32:01.745Z,95961.25
2022-11-22T18:34:28.771Z,95952.97
2022-11-22T18:37:00.374Z,95947.63
2022-11-22T18:39:29.664Z,95949.13
2022-11-22T18:41:56.717Z,95955.34
2022-11-22T18:44:23.261Z,95944.88
2022-11-22T18:46:49.719Z,95955.22
2022-11-22T18:49:16.235Z,95944.56
2022-11-22T18:51:42.743Z,95945.03
2022-11-22T18:54:10.367Z,95947.88
2022-11-22T18:56:40.096Z,95940.53
2022-11-22T18:59:07.599Z,95948.19
2022-11-22T19:01:34.704Z,95952.38
2022-11-22T19:04:01.647Z,95956.41
2022-11-22T19:06:28.100Z,95954.38
2022-11-22T19:08:55.341Z,95950.91
2022-11-22T19:11:21.992Z,95952.19
2022-11-22T19:13:48.588Z,95953.91
2022-11-22T19:16:21.705Z,95955.38
2022-11-22T19:18:48.818Z,95955.66
2022-11-22T19:21:19.816Z,95962.50
2022-11-22T19:23:47.037Z,95961.00
2022-11-22T19:26:15.537Z,95961.53
2022-11-22T19:28:42.514Z,95965.31
2022-11-22T19:31:13.727Z,95966.53
2022-11-22T19:33:40.695Z,95960.56
2022-11-22T19:36:10.066Z,95965.84
2022-11-22T19:38:36.715Z,95968.25
2022-11-22T19:41:07.301Z,95964.06
2022-11-22T19:43:33.847Z,95964.91
2022-11-22T19:46:01.377Z,95965.56
2022-11-22T19:48:27.977Z,95960.91
2022-11-22T19:50:54.694Z,95961.56
2022-11-22T19:53:21.206Z,95959.56
2022-11-22T19:55:47.682Z,95962.22
2022-11-22T19:58:14.282Z,95961.75
2022-11-22T20:00:41.522Z,95949.56
2022-11-22T20:03:11.113Z,95961.91
2022-11-22T20:05:37.608Z,95947.88
2022-11-22T20:08:04.296Z,95954.25
2022-11-22T20:10:30.977Z,95954.75
2022-11-22T20:12:57.482Z,95970.94
2022-11-22T20:15:23.980Z,95956.22
2022-11-22T20:17:50.481Z,95963.91
2022-11-22T20:20:17.055Z,95966.91
2022-11-22T20:22:43.592Z,95965.09
2022-11-22T20:25:10.237Z,95963.59
2022-11-22T20:27:36.763Z,95966.91
2022-11-22T20:30:03.314Z,95964.75
2022-11-22T20:32:31.284Z,95961.25
2022-11-22T20:34:57.849Z,95962.41
2022-11-22T20:37:24.298Z,95966.59
2022-11-22T20:39:50.978Z,95971.28
2022-11-22T20:42:34.612Z,95977.13
2022-11-22T20:45:03.414Z,95979.78
2022-11-22T20:47:30.593Z,95978.47
2022-11-22T20:49:57.029Z,95976.97
2022-11-22T20:52:23.544Z,95988.31
2022-11-22T20:54:50.026Z,95991.00
2022-11-22T20:57:16.584Z,95984.66
2022-11-22T20:59:43.172Z,95994.97
2022-11-22T21:02:12.652Z,95993.84
2022-11-22T21:04:39.170Z,95998.03
2022-11-22T21:07:05.870Z,95997.66
2022-11-22T21:09:32.455Z,96004.19
2022-11-22T21:12:00.825Z,96003.84
2022-11-22T21:14:27.317Z,96007.19
2022-11-22T21:16:53.758Z,96011.19
2022-11-22T21:19:20.316Z,96009.56
2022-11-22T21:21:46.766Z,96009.38
2022-11-22T21:24:13.747Z,96012.03
2022-11-22T21:26:40.626Z,96008.69
2022-11-22T21:29:15.995Z,96010.03
2022-11-22T21:31:42.892Z,96014.03
2022-11-22T21:34:09.425Z,96010.72
2022-11-22T21:36:36.104Z,96008.03
2022-11-22T21:39:02.595Z,96016.06
2022-11-22T21:41:44.317Z,96015.38
2022-11-22T21:44:11.080Z,96022.59
2022-11-22T21:46:37.813Z,96022.06
2022-11-22T21:49:04.355Z,96012.22
2022-11-22T21:51:31.965Z,96015.22
2022-11-22T21:53:59.022Z,96019.75
2022-11-22T21:56:25.883Z,96027.41
2022-11-22T21:58:52.359Z,96026.41
2022-11-22T22:01:18.918Z,96025.09
2022-11-22T22:03:45.459Z,96032.44
2022-11-22T22:06:12.079Z,96032.59
2022-11-22T22:08:40.499Z,96033.09
2022-11-22T22:11:07.050Z,96031.09
2022-11-22T22:13:33.752Z,96035.09
2022-11-22T22:16:03.413Z,96041.16
2022-11-22T22:18:33.817Z,96039.13
2022-11-22T22:21:05.296Z,96041.78
2022-11-22T22:23:32.035Z,96038.78
2022-11-22T22:26:02.704Z,96044.31
2022-11-22T22:28:32.973Z,96034.78
2022-11-22T22:31:10.055Z,96037.41
2022-11-22T22:33:37.648Z,96037.44
2022-11-22T22:36:04.675Z,96036.78
2022-11-22T22:38:31.627Z,96032.44
2022-11-22T22:40:59.207Z,96031.75
2022-11-22T22:43:28.855Z,96038.94
2022-11-22T22:45:55.264Z,96038.09
2022-11-22T22:48:21.857Z,96026.91
2022-11-22T22:50:48.307Z,96030.59
2022-11-22T22:53:14.784Z,96022.22
2022-11-22T22:55:41.197Z,96022.91
2022-11-22T22:58:11.622Z,96025.75
2022-11-22T23:00:38.613Z,96026.06
2022-11-22T23:03:05.167Z,96032.06
2022-11-22T23:05:31.716Z,96031.75
2022-11-22T23:07:58.277Z,96037.44
2022-11-22T23:10:24.844Z,96036.13
2022-11-22T23:12:52.034Z,96029.78
2022-11-22T23:15:32.946Z,96035.28
2022-11-22T23:18:05.042Z,96039.13
2022-11-22T23:20:31.492Z,96030.75
2022-11-22T23:22:58.080Z,96029.09
2022-11-22T23:25:24.649Z,96040.44
2022-11-22T23:27:51.107Z,96035.13
2022-11-22T23:30:17.689Z,96036.44
2022-11-22T23:32:44.183Z,96035.63
2022-11-22T23:35:10.732Z,96031.41
2022-11-22T23:37:37.220Z,96033.75
2022-11-22T23:40:03.864Z,96036.44
2022-11-22T23:42:30.336Z,96026.91
2022-11-22T23:44:57.133Z,96029.25
2022-11-22T23:47:23.597Z,96029.44
2022-11-22T23:49:50.081Z,96032.94
2022-11-22T23:52:16.607Z,96029.06
2022-11-22T23:54:43.112Z,96034.97
2022-11-22T23:57:09.564Z,96034.97
2022-11-22T23:59:36.014Z,96037.78
